Terminal Aerodrome Forecast
Issued by NWS

Home | Current Version | Previous Version | Text Only | Print | Product List | Glossary Off
Versions: 1 2 3 4 5 6 7 8 9 10 11 12 13

657
FTUS43 KGRB 181136
TAFAUW
TAF
KAUW 181136Z 1812/1912 23007KT P6SM SCT120 OVC250 WS019/28030KT
     FM181700 25010G17KT P6SM SCT120
     FM182300 26005KT P6SM BKN250=

USA.gov is the U.S. government's official web portal to all federal, state and local government web resources and services.